Latest Weather Observations for Maryborough

IDQ60801

Issued at 8:32 am EST Saturday 27 May 2017 (issued every 30 minutes, with the page automatically refreshed every 10 minutes)

About weather observations | Map of weather stations | Latest weather observations for QLD | Other Formats
Station Details ID: 040126 Name: MARYBOROUGH Lat: -25.51 Lon: 152.72 Height: 8.98 m
Data from the previous 72 hours. | See also: Recent months at Maryborough
Date/Time
EST
Temp
°C
App
Temp
°C
Dew
Point
°C
Rel
Hum
%
Delta-T
°C
Wind Press
QNH
hPa
Press
MSL
hPa
Rain since
9am
mm
Dir  Spd
km/h
Gust
km/h
Spd
kts
Gust
kts
27/08:30am 16.5 15.5 15.5 94 0.6 S 15 19 8 10 1021.6 - 0.0
27/08:00am 15.4 15.2 14.6 95 0.5 S 9 13 5 7 1021.6 - 0.0
27/07:30am 15.4 15.6 14.8 96 0.3 S 7 9 4 5 1021.2 - 0.0
27/07:03am 14.6 14.5 14.0 96 0.3 S 7 11 4 6 1020.9 - 0.0
27/07:00am 14.3 13.8 13.7 96 0.3 S 9 11 5 6 1020.9 - 0.0
27/06:30am 13.6 14.5 12.8 95 0.4 CALM 0 7 0 4 1020.6 - 0.0
27/06:28am 13.6 14.5 12.8 95 0.4 CALM 0 0 0 0 1020.6 - 0.0
27/06:00am 14.2 13.9 13.4 95 0.4 NE 7 9 4 5 1020.1 1020.1 0.0
27/05:46am 14.2 13.9 13.4 95 0.4 NE 7 9 4 5 1019.9 - 0.0
27/05:30am 14.1 15.1 13.3 95 0.4 CALM 0 0 0 0 1019.9 - 0.0
27/05:29am 14.2 15.2 13.2 94 0.6 CALM 0 0 0 0 1019.9 - 0.0
27/05:07am 14.3 15.4 13.5 95 0.4 CALM 0 6 0 3 1019.7 - 0.0
27/05:00am 14.4 14.8 13.6 95 0.4 NE 4 6 2 3 1019.7 - 0.0
27/04:46am 14.7 15.6 13.9 95 0.4 NE 2 9 1 5 1019.6 - 0.0
27/04:34am 14.5 15.6 13.5 94 0.6 CALM 0 0 0 0 1019.8 - 0.0
27/04:30am 14.5 15.6 13.5 94 0.6 CALM 0 0 0 0 1019.7 - 0.0
27/04:00am 14.7 15.9 13.9 95 0.4 CALM 0 0 0 0 1019.7 - 0.0
27/03:30am 14.7 15.9 13.7 94 0.6 CALM 0 0 0 0 1019.7 - 0.0
27/03:00am 14.7 14.5 13.7 94 0.6 NE 7 11 4 6 1019.9 1019.9 0.0
27/02:30am 14.5 14.5 13.5 94 0.6 NE 6 11 3 6 1019.9 - 0.0
27/02:00am 15.1 15.3 14.1 94 0.6 S 6 7 3 4 1019.8 - 0.0
27/01:30am 14.8 14.7 13.8 94 0.6 ESE 7 9 4 5 1019.9 - 0.0
27/01:00am 14.6 14.6 13.5 93 0.6 ESE 6 7 3 4 1020.3 - 0.0
27/12:30am 14.6 14.6 13.5 93 0.6 ESE 6 7 3 4 1020.4 - 0.0
27/12:00am 14.8 14.6 13.7 93 0.6 ESE 7 9 4 5 1020.4 1020.4 0.0
 
Date/Time
EST
Temp
°C
App
Temp
°C
Dew
Point
°C
Rel
Hum
%
Delta-T
°C
Wind Press
QNH
hPa
Press
MSL
hPa
Rain since
9am
mm
Dir  Spd
km/h
Gust
km/h
Spd
kts
Gust
kts
26/11:37pm 14.4 14.2 13.1 92 0.7 ESE 6 7 3 4 1020.5 - 0.0
26/11:30pm 14.7 14.6 13.4 92 0.7 ESE 6 7 3 4 1020.5 - 0.0
26/11:00pm 14.4 15.4 13.1 92 0.7 CALM 0 0 0 0 1020.4 - 0.0
26/10:43pm 14.7 15.8 13.4 92 0.7 CALM 0 0 0 0 1020.5 - 0.0
26/10:30pm 14.7 15.8 13.4 92 0.7 CALM 0 0 0 0 1020.5 - 0.0
26/10:03pm 14.7 15.7 13.2 91 0.8 CALM 0 0 0 0 1020.7 - 0.0
26/10:00pm 14.7 15.7 13.2 91 0.8 CALM 0 0 0 0 1020.7 - 0.0
26/09:30pm 14.9 15.9 13.3 90 0.9 CALM 0 0 0 0 1020.6 - 0.0
26/09:14pm 14.9 15.9 13.3 90 0.9 CALM 0 0 0 0 1020.5 - 0.0
26/09:00pm 14.9 15.9 13.1 89 1.0 CALM 0 0 0 0 1020.5 1020.5 0.0
26/08:30pm 15.2 16.2 13.2 88 1.1 CALM 0 0 0 0 1020.2 - 0.0
26/08:15pm 15.5 16.6 13.5 88 1.1 CALM 0 0 0 0 1020.1 - 0.0
26/08:00pm 15.7 16.8 13.5 87 1.2 CALM 0 2 0 1 1020.0 - 0.0
26/07:30pm 16.6 16.6 14.2 86 1.4 ESE 7 7 4 4 1019.6 - 0.0
26/07:00pm 16.9 16.9 14.2 84 1.5 ESE 7 7 4 4 1019.2 - 0.0
26/06:30pm 17.2 17.3 13.9 81 1.9 ESE 6 7 3 4 1018.8 - 0.0
26/06:00pm 18.0 18.2 14.1 78 2.2 ESE 6 7 3 4 1018.4 1018.4 0.0
26/05:30pm 19.4 19.1 14.4 73 2.9 ESE 9 11 5 6 1018.2 - 0.0
26/05:00pm 20.9 20.3 14.5 67 3.7 ESE 11 15 6 8 1018.0 - 0.0
26/04:30pm 22.0 20.7 14.9 64 4.2 ESE 15 19 8 10 1017.8 - 0.0
26/04:00pm 23.0 21.7 14.8 60 4.9 ESE 15 24 8 13 1017.7 - 0.0
26/03:30pm 23.9 22.5 14.6 56 5.5 ESE 15 24 8 13 1017.5 - 0.0
26/03:00pm 24.2 22.6 14.0 53 6.0 ESE 15 24 8 13 1017.5 1017.5 0.0
26/02:30pm 23.8 22.1 13.6 52 5.9 ESE 15 24 8 13 1017.6 - 0.0
26/02:00pm 25.2 24.7 14.9 52 6.2 E 11 20 6 11 1017.7 - 0.0
26/01:30pm 23.4 22.9 14.9 59 5.1 SSE 11 17 6 9 1018.0 - 0.0
26/01:00pm 23.8 22.7 14.2 55 5.7 S 13 22 7 12 1018.5 - 0.0
26/12:30pm 23.5 24.1 15.3 60 4.9 SE 6 11 3 6 1019.0 - 0.0
26/12:00pm 24.3 23.3 14.7 55 5.7 SE 13 19 7 10 1019.3 1019.3 0.0
26/11:30am 24.4 24.8 16.4 61 4.9 SSE 9 20 5 11 1020.0 - 0.0
26/11:00am 23.0 23.5 16.5 67 4.0 S 9 15 5 8 1020.5 - 0.0
26/10:30am 22.4 22.7 16.9 71 3.4 S 11 15 6 8 1020.7 - 0.0
26/10:00am 21.7 22.0 16.9 74 2.9 S 11 15 6 8 1020.9 - 0.0
26/09:30am 20.1 20.4 16.9 82 1.9 S 11 15 6 8 1020.9 - 0.0
26/09:00am 18.4 18.2 16.6 89 1.1 S 13 17 7 9 1020.9 1020.9 0.2
26/08:30am 18.2 18.5 17.0 93 0.7 S 11 15 6 8 1020.7 - 0.2
26/08:00am 17.1 17.5 16.3 95 0.5 SSW 9 13 5 7 1020.5 - 0.2
26/07:30am 15.6 15.5 15.0 96 0.3 SW 9 11 5 6 1020.3 - 0.2
26/07:24am 15.2 15.4 14.6 96 0.3 SW 7 9 4 5 1020.2 - 0.2
26/07:00am 13.9 14.9 13.1 95 0.4 CALM 0 6 0 3 1020.0 - 0.2
26/06:45am 13.7 13.5 12.9 95 0.4 SW 6 7 3 4 1019.9 - 0.2
26/06:36am 13.8 13.6 13.0 95 0.4 SW 6 7 3 4 1019.8 - 0.2
26/06:30am 13.9 13.7 13.1 95 0.4 SW 6 7 3 4 1019.8 - 0.2
26/06:00am 13.6 13.7 12.7 94 0.5 SW 4 6 2 3 1019.3 1019.3 0.2
26/05:50am 13.8 14.3 12.9 94 0.5 SW 2 6 1 3 1019.2 - 0.2
26/05:42am 14.0 14.2 13.1 94 0.5 SW 4 6 2 3 1019.2 - 0.2
26/05:30am 13.9 13.7 13.0 94 0.5 SW 6 6 3 3 1019.0 - 0.2
26/05:11am 13.5 13.2 12.6 94 0.5 SW 6 7 3 4 1018.7 - 0.2
26/05:00am 13.9 13.7 13.0 94 0.5 SW 6 7 3 4 1018.6 - 0.2
26/04:42am 13.3 12.9 12.4 94 0.5 SW 6 7 3 4 1018.5 - 0.2
26/04:30am 13.6 13.3 12.7 94 0.5 SW 6 7 3 4 1018.4 - 0.2
26/04:00am 13.6 13.6 12.5 93 0.6 SW 4 6 2 3 1018.2 - 0.2
26/03:30am 14.4 14.3 13.3 93 0.6 SW 6 7 3 4 1018.1 - 0.2
26/03:00am 14.3 14.5 13.2 93 0.6 SW 4 6 2 3 1018.3 1018.3 0.2
26/02:30am 14.7 14.7 13.6 93 0.6 SW 6 7 3 4 1018.4 - 0.2
26/02:18am 15.0 14.9 13.9 93 0.6 SW 7 7 4 4 1018.5 - 0.2
26/02:00am 14.9 14.8 13.8 93 0.6 SW 7 9 4 5 1018.6 - 0.2
26/01:30am 15.3 15.5 14.2 93 0.6 SW 6 7 3 4 1018.8 - 0.2
26/01:00am 15.1 15.0 13.8 92 0.7 SSW 7 9 4 5 1019.2 - 0.2
26/12:30am 15.6 15.8 14.3 92 0.7 SSW 6 7 3 4 1019.3 - 0.2
26/12:00am 16.0 16.2 14.7 92 0.7 SSW 7 9 4 5 1019.4 1019.4 0.2
 
Date/Time
EST
Temp
°C
App
Temp
°C
Dew
Point
°C
Rel
Hum
%
Delta-T
°C
Wind Press
QNH
hPa
Press
MSL
hPa
Rain since
9am
mm
Dir  Spd
km/h
Gust
km/h
Spd
kts
Gust
kts
25/11:30pm 16.0 16.4 14.7 92 0.7 S 6 7 3 4 1019.5 - 0.2
25/11:15pm 15.8 16.0 14.3 91 0.9 S 6 7 3 4 1019.6 - 0.2
25/11:00pm 15.5 15.4 14.0 91 0.8 S 7 7 4 4 1019.6 - 0.2
25/10:30pm 15.6 15.7 14.0 90 0.9 S 6 7 3 4 1019.5 - 0.2
25/10:00pm 16.1 16.8 14.5 90 0.9 S 4 6 2 3 1019.6 - 0.2
25/09:30pm 16.3 16.6 14.5 89 1.0 S 6 7 3 4 1019.5 - 0.2
25/09:00pm 16.9 16.9 15.1 89 1.0 S 9 9 5 5 1019.4 1019.4 0.2
25/08:53pm 16.7 16.9 14.7 88 1.2 S 7 9 4 5 1019.4 - 0.2
25/08:30pm 17.1 17.1 15.1 88 1.2 S 9 11 5 6 1019.4 - 0.2
25/08:00pm 17.1 16.9 14.7 86 1.4 S 9 13 5 7 1019.3 - 0.2
25/07:30pm 17.5 17.3 14.8 84 1.6 S 9 13 5 7 1019.1 - 0.2
25/07:00pm 18.3 18.7 15.4 83 1.7 SE 7 9 4 5 1018.8 - 0.2
25/06:30pm 19.1 19.0 16.0 82 1.8 SSE 11 13 6 7 1018.4 - 0.2
25/06:00pm 18.9 18.1 15.2 79 2.2 SE 13 17 7 9 1018.0 1018.0 0.2
25/05:30pm 20.0 20.2 14.6 71 3.1 ESE 7 9 4 5 1017.7 - 0.2
25/05:00pm 21.5 21.0 14.9 66 3.9 ESE 11 15 6 8 1017.4 - 0.2
25/04:30pm 22.8 21.6 15.1 62 4.6 SE 15 22 8 12 1017.1 - 0.2
25/04:00pm 23.3 22.6 15.4 61 4.7 SE 13 19 7 10 1016.9 - 0.2
25/03:30pm 24.4 23.2 15.1 56 5.6 ESE 15 24 8 13 1016.7 - 0.2
25/03:00pm 24.2 22.7 14.3 54 5.8 ESE 15 24 8 13 1016.5 1016.5 0.2
25/02:30pm 24.7 24.0 13.3 49 6.6 SSE 9 17 5 9 1016.5 - 0.2
25/02:00pm 25.5 24.6 12.7 45 7.4 SSE 9 17 5 9 1016.5 - 0.2
25/01:30pm 25.1 23.7 10.9 41 8.0 S 9 17 5 9 1016.7 - 0.2
25/01:00pm 25.3 23.4 11.8 43 7.7 S 13 19 7 10 1017.0 - 0.2
25/12:30pm 24.6 23.3 11.2 43 7.5 SSW 9 17 5 9 1017.4 - 0.2
25/12:00pm 24.3 22.2 11.3 44 7.3 SSW 13 22 7 12 1017.8 1017.8 0.2
25/11:30am 24.2 21.8 11.5 45 7.2 SSE 15 22 8 12 1018.2 - 0.2
25/11:00am 24.2 21.6 10.8 43 7.5 SSW 15 20 8 11 1018.5 - 0.2
25/10:30am 23.1 22.0 13.0 53 5.8 WSW 11 17 6 9 1018.7 - 0.0
25/10:00am 22.4 21.6 12.9 55 5.4 W 9 15 5 8 1018.9 - 0.0
25/09:30am 21.4 20.3 13.1 59 4.7 SW 11 17 6 9 1019.3 - 0.0
25/09:00am 20.6 19.7 14.9 70 3.3 SSW 13 17 7 9 1019.3 1019.3 0.0
25/08:30am 19.0 19.4 17.3 90 1.0 SW 11 17 6 9 1019.3 - 0.0
25/08:00am 17.2 17.6 16.4 95 0.5 S 9 13 5 7 1019.1 - 0.0
25/07:30am 15.8 15.8 15.3 97 0.3 SSW 9 13 5 7 1018.7 - 0.0
25/07:15am 13.7 13.3 13.1 96 0.3 SW 7 9 4 5 1018.4 - 0.0
25/07:00am 12.5 11.9 11.7 95 0.4 SW 6 9 3 5 1018.2 - 0.0
25/06:52am 12.7 12.5 11.9 95 0.4 SW 4 9 2 5 1018.0 - 0.0
25/06:51am 12.9 12.4 12.1 95 0.4 SW 6 9 3 5 1017.9 - 0.0
25/06:30am 12.4 12.9 11.6 95 0.4 CALM 0 0 0 0 1017.6 - 0.0
25/06:00am 12.6 13.2 11.8 95 0.4 CALM 0 0 0 0 1017.1 1017.1 0.0
25/05:54am 12.7 13.3 11.9 95 0.4 CALM 0 0 0 0 1017.1 - 0.0
25/05:30am 13.1 13.4 12.3 95 0.4 SW 2 7 1 4 1016.9 - 0.0
25/05:00am 13.0 13.7 12.1 94 0.5 CALM 0 0 0 0 1016.6 - 0.0
25/04:30am 13.4 14.2 12.5 94 0.5 CALM 0 0 0 0 1016.4 - 0.0
25/04:00am 13.5 14.3 12.6 94 0.5 CALM 0 0 0 0 1016.3 - 0.0
25/03:30am 13.7 14.6 12.8 94 0.5 CALM 0 0 0 0 1016.3 - 0.0
25/03:00am 13.9 14.8 13.0 94 0.5 CALM 0 0 0 0 1016.4 1016.4 0.0
25/02:30am 14.5 15.6 13.5 94 0.6 CALM 0 0 0 0 1016.5 - 0.0
25/02:00am 14.4 15.4 13.3 93 0.6 CALM 0 0 0 0 1016.7 - 0.0
25/01:33am 15.2 15.8 14.2 94 0.6 SW 4 6 2 3 1016.9 - 0.0
25/01:30am 15.3 15.9 14.3 94 0.6 SW 4 7 2 4 1016.9 - 0.0
25/01:29am 15.3 15.9 14.3 94 0.6 SW 4 7 2 4 1016.9 - 0.0
25/01:00am 14.8 16.0 13.7 93 0.6 CALM 0 0 0 0 1016.9 - 0.0
25/12:30am 14.9 14.9 13.6 92 0.7 NNW 6 6 3 3 1017.0 - 0.0
25/12:00am 15.0 15.0 13.7 92 0.7 NNW 6 7 3 4 1017.0 1017.0 0.0
 
Date/Time
EST
Temp
°C
App
Temp
°C
Dew
Point
°C
Rel
Hum
%
Delta-T
°C
Wind Press
QNH
hPa
Press
MSL
hPa
Rain since
9am
mm
Dir  Spd
km/h
Gust
km/h
Spd
kts
Gust
kts
24/11:46pm 15.1 15.0 13.8 92 0.7 NNW 7 7 4 4 1017.0 - 0.0
24/11:31pm 15.6 15.6 14.3 92 0.7 NNW 7 9 4 5 1017.2 - 0.0
24/11:30pm 15.7 15.8 14.4 92 0.7 NNW 7 9 4 5 1017.2 - 0.0
24/11:00pm 15.7 16.7 14.2 91 0.9 N 2 6 1 3 1017.5 - 0.0
24/10:44pm 15.8 17.2 14.3 91 0.9 CALM 0 0 0 0 1017.6 - 0.0
24/10:41pm 15.8 17.2 14.3 91 0.9 CALM 0 0 0 0 1017.6 - 0.0
24/10:30pm 15.8 17.2 14.3 91 0.9 CALM 0 0 0 0 1017.7 - 0.0
24/10:09pm 15.6 15.7 14.0 90 0.9 N 6 6 3 3 1017.7 - 0.0
24/10:00pm 16.0 16.3 14.4 90 0.9 N 6 6 3 3 1017.8 - 0.0
24/09:30pm 16.4 16.7 14.6 89 1.0 N 6 6 3 3 1017.7 - 0.0
24/09:00pm 16.9 17.2 14.9 88 1.2 N 7 7 4 4 1017.6 1017.6 0.0
24/08:30pm 17.3 17.6 15.1 87 1.3 N 7 7 4 4 1017.6 - 0.0
24/08:00pm 17.7 18.0 15.1 85 1.5 N 7 7 4 4 1017.4 - 0.0
24/07:30pm 18.2 18.6 15.3 83 1.7 N 7 9 4 5 1017.4 - 0.0
24/07:00pm 19.0 19.5 15.5 80 2.1 NNW 7 9 4 5 1017.3 - 0.0
24/06:30pm 19.5 19.9 15.4 77 2.4 N 7 9 4 5 1017.2 - 0.0
24/06:00pm 20.4 20.6 15.8 75 2.7 N 9 11 5 6 1017.1 1017.1 0.0
24/05:30pm 21.1 21.6 15.6 71 3.3 N 7 9 4 5 1016.8 - 0.0
24/05:00pm 22.7 22.9 15.8 65 4.2 N 9 11 5 6 1016.7 - 0.0
24/04:30pm 24.5 25.2 16.2 60 5.1 N 7 11 4 6 1016.3 - 0.0
24/04:00pm 26.9 29.0 16.2 52 6.6 CALM 0 0 0 0 1016.0 - 0.0
24/03:30pm 27.0 28.4 15.4 49 7.1 SSW 2 7 1 4 1015.9 - 0.0
24/03:00pm 27.0 28.0 15.4 49 7.1 NE 4 7 2 4 1015.9 1015.9 0.0
24/02:30pm 27.0 27.4 16.3 52 6.6 NNW 9 13 5 7 1016.0 - 0.0
24/02:00pm 27.0 27.7 16.0 51 6.8 WSW 7 11 4 6 1016.2 - 0.0
24/01:30pm 26.4 27.1 16.0 52 6.4 NW 7 17 4 9 1016.7 - 0.0
24/01:00pm 26.3 26.8 16.5 54 6.0 WSW 9 15 5 8 1017.1 - 0.0
24/12:30pm 25.6 27.3 16.2 56 5.8 NW 2 7 1 4 1017.4 - 0.0
24/12:00pm 25.3 26.0 16.2 57 5.6 NNW 7 13 4 7 1018.1 1018.1 0.0
24/11:30am 24.9 25.7 16.3 59 5.3 NW 7 13 4 7 1018.6 - 0.0
24/11:00am 24.7 25.8 16.7 61 4.9 N 6 9 3 5 1019.3 - 0.0
24/10:30am 23.5 24.6 17.0 67 4.0 NW 7 13 4 7 1019.7 - 0.0
24/10:00am 22.7 24.5 18.7 78 2.5 SSW 7 11 4 6 1020.1 - 0.0
24/09:30am 22.0 24.6 20.1 89 1.2 SW 6 9 3 5 1020.3 - 0.0
24/09:00am 20.7 23.8 19.5 93 0.8 SW 2 6 1 3 1020.4 1020.4 0.2

Other Formats:

Comma delimited format used in spreadsheet applications
http://www.bom.gov.au/fwo/IDQ60801/IDQ60801.94567.axf

JavaScript Object Notation format (JSON) in row-major order
http://www.bom.gov.au/fwo/IDQ60801/IDQ60801.94567.json